AIC1176 VABB-VCBI
Flight info
| Callsign | AIC1176 |
|---|---|
| Flight time | 2h 35m |
| Altitude | 39000 |
| Route | VEVAK2A EPKOS Q9 MMV/N0487F400 A465 SAGOR SAGOR1A |
| Aircraft | A359/H-SDE2E3GHIJ3J4J5LM1ORWXY/LB1D1 |
Departure
| Time | 2026-04-22 12:14 |
|---|---|
| Airport | Chhatrapati Shivaji Maharaj International Airport (VABB) |
Arrival
| Time | 2026-04-22 14:49 |
|---|---|
| Airport | Bandaranaike International Colombo Airport (VCBI) |
| Time | Latitude | Longitude | Altitude | Speed | Heading |
|---|---|---|---|---|---|
| 2026-04-22 11:54 | 19.09317 | 72.87214 | 39 ft | 0 kts | 342° |
| 2026-04-22 11:59 | 19.09312 | 72.87215 | 39 ft | 2 kts | 342° |
| 2026-04-22 11:59 | 19.09297 | 72.87219 | 39 ft | 2 kts | 357° |
| 2026-04-22 12:00 | 19.09282 | 72.87219 | 39 ft | 2 kts | 13° |
| 2026-04-22 12:00 | 19.09268 | 72.87213 | 38 ft | 2 kts | 27° |
| 2026-04-22 12:00 | 19.09255 | 72.87205 | 38 ft | 2 kts | 42° |
| 2026-04-22 12:00 | 19.09245 | 72.87193 | 38 ft | 2 kts | 57° |
| 2026-04-22 12:01 | 19.09238 | 72.87179 | 38 ft | 2 kts | 71° |
| 2026-04-22 12:01 | 19.09235 | 72.87170 | 38 ft | 2 kts | 80° |
| 2026-04-22 12:02 | 19.09234 | 72.87158 | 38 ft | 0 kts | 90° |
| 2026-04-22 12:02 | 19.09235 | 72.87167 | 38 ft | 4 kts | 85° |
| 2026-04-22 12:02 | 19.09237 | 72.87195 | 38 ft | 1 kts | 87° |
| 2026-04-22 12:02 | 19.09237 | 72.87202 | 38 ft | 0 kts | 90° |
| 2026-04-22 12:05 | 19.09236 | 72.87209 | 38 ft | 1 kts | 96° |
| 2026-04-22 12:06 | 19.09226 | 72.87228 | 38 ft | 4 kts | 137° |
| 2026-04-22 12:06 | 19.09184 | 72.87250 | 37 ft | 8 kts | 161° |
| 2026-04-22 12:06 | 19.09117 | 72.87261 | 35 ft | 11 kts | 175° |
| 2026-04-22 12:06 | 19.09057 | 72.87308 | 34 ft | 11 kts | 109° |
| 2026-04-22 12:07 | 19.09054 | 72.87399 | 34 ft | 12 kts | 89° |
| 2026-04-22 12:07 | 19.09055 | 72.87498 | 34 ft | 13 kts | 90° |
| 2026-04-22 12:07 | 19.09055 | 72.87597 | 36 ft | 13 kts | 89° |
| 2026-04-22 12:07 | 19.09056 | 72.87695 | 36 ft | 13 kts | 89° |
| 2026-04-22 12:08 | 19.09058 | 72.87798 | 37 ft | 14 kts | 89° |
| 2026-04-22 12:08 | 19.09060 | 72.87898 | 40 ft | 12 kts | 89° |
| 2026-04-22 12:08 | 19.09060 | 72.87985 | 43 ft | 11 kts | 91° |
| 2026-04-22 12:08 | 19.09020 | 72.88044 | 44 ft | 10 kts | 164° |
| 2026-04-22 12:09 | 19.08939 | 72.88050 | 42 ft | 12 kts | 189° |
| 2026-04-22 12:09 | 19.08891 | 72.87976 | 41 ft | 13 kts | 262° |
| 2026-04-22 12:09 | 19.08886 | 72.87907 | 39 ft | 0 kts | 268° |
| 2026-04-22 12:13 | 19.08885 | 72.87884 | 38 ft | 13 kts | 268° |
| 2026-04-22 12:13 | 19.08881 | 72.87608 | 34 ft | 71 kts | 269° |
| 2026-04-22 12:13 | 19.08871 | 72.86848 | 37 ft | 134 kts | 269° |
| 2026-04-22 12:13 | 19.08853 | 72.85667 | 134 ft | 177 kts | 269° |
| 2026-04-22 12:14 | 19.08844 | 72.84400 | 916 ft | 174 kts | 270° |
| 2026-04-22 12:14 | 19.08839 | 72.83147 | 1679 ft | 173 kts | 270° |
| 2026-04-22 12:14 | 19.08831 | 72.81847 | 2131 ft | 183 kts | 270° |
| 2026-04-22 12:14 | 19.08809 | 72.80471 | 2443 ft | 196 kts | 269° |
| 2026-04-22 12:15 | 19.08767 | 72.78948 | 2731 ft | 214 kts | 270° |
| 2026-04-22 12:15 | 19.08747 | 72.77346 | 3117 ft | 228 kts | 270° |
| 2026-04-22 12:15 | 19.08728 | 72.75600 | 3496 ft | 244 kts | 270° |
| 2026-04-22 12:15 | 19.08486 | 72.73758 | 3858 ft | 263 kts | 249° |
| 2026-04-22 12:16 | 19.07386 | 72.72176 | 4375 ft | 276 kts | 218° |
| 2026-04-22 12:16 | 19.05660 | 72.71368 | 5028 ft | 283 kts | 188° |
| 2026-04-22 12:16 | 19.03713 | 72.71596 | 5706 ft | 287 kts | 156° |
| 2026-04-22 12:16 | 19.02101 | 72.72823 | 6428 ft | 288 kts | 135° |
| 2026-04-22 12:17 | 19.00586 | 72.74175 | 7163 ft | 291 kts | 150° |
| 2026-04-22 12:17 | 18.98640 | 72.74760 | 7893 ft | 294 kts | 175° |
| 2026-04-22 12:17 | 18.96604 | 72.74821 | 8453 ft | 296 kts | 180° |
| 2026-04-22 12:17 | 18.94549 | 72.74776 | 8729 ft | 297 kts | 181° |
| 2026-04-22 12:18 | 18.92492 | 72.74706 | 8765 ft | 293 kts | 181° |
| 2026-04-22 12:18 | 18.90490 | 72.74639 | 8770 ft | 287 kts | 181° |
| 2026-04-22 12:18 | 18.88485 | 72.74578 | 8772 ft | 286 kts | 181° |
| 2026-04-22 12:18 | 18.86523 | 72.74522 | 8772 ft | 285 kts | 181° |
| 2026-04-22 12:19 | 18.84534 | 72.74468 | 8773 ft | 285 kts | 181° |
| 2026-04-22 12:19 | 18.82544 | 72.74413 | 8773 ft | 285 kts | 181° |
| 2026-04-22 12:19 | 18.80582 | 72.74361 | 8773 ft | 285 kts | 181° |
| 2026-04-22 12:19 | 18.78597 | 72.74414 | 8804 ft | 289 kts | 169° |
| 2026-04-22 12:20 | 18.76673 | 72.75102 | 9293 ft | 294 kts | 150° |
| 2026-04-22 12:20 | 18.74982 | 72.76249 | 10125 ft | 292 kts | 145° |
| 2026-04-22 12:20 | 18.73296 | 72.77494 | 10607 ft | 304 kts | 144° |
| 2026-04-22 12:20 | 18.71522 | 72.78820 | 10943 ft | 320 kts | 144° |
| 2026-04-22 12:21 | 18.69629 | 72.80233 | 11268 ft | 336 kts | 144° |
| 2026-04-22 12:21 | 18.67640 | 72.81710 | 11583 ft | 352 kts | 144° |
| 2026-04-22 12:21 | 18.65574 | 72.83240 | 11884 ft | 368 kts | 144° |
| 2026-04-22 12:21 | 18.63436 | 72.84821 | 12260 ft | 379 kts | 144° |
| 2026-04-22 12:22 | 18.61266 | 72.86422 | 12856 ft | 384 kts | 144° |
| 2026-04-22 12:22 | 18.59061 | 72.88048 | 13512 ft | 387 kts | 144° |
| 2026-04-22 12:22 | 18.56852 | 72.89675 | 14145 ft | 390 kts | 144° |
| 2026-04-22 12:22 | 18.54596 | 72.91335 | 14767 ft | 394 kts | 144° |
| 2026-04-22 12:23 | 18.52319 | 72.93011 | 15377 ft | 397 kts | 144° |
| 2026-04-22 12:23 | 18.50011 | 72.94708 | 15983 ft | 400 kts | 144° |
| 2026-04-22 12:23 | 18.47733 | 72.96382 | 16569 ft | 403 kts | 144° |
| 2026-04-22 12:23 | 18.45434 | 72.98072 | 17148 ft | 406 kts | 144° |
| 2026-04-22 12:24 | 18.43103 | 72.99784 | 17721 ft | 410 kts | 144° |
| 2026-04-22 12:24 | 18.40745 | 73.01516 | 18287 ft | 413 kts | 144° |
| 2026-04-22 12:24 | 18.38412 | 73.03228 | 18835 ft | 416 kts | 144° |
| 2026-04-22 12:24 | 18.36040 | 73.04968 | 19380 ft | 419 kts | 144° |
| 2026-04-22 12:25 | 18.33644 | 73.06726 | 19920 ft | 422 kts | 144° |
| 2026-04-22 12:25 | 18.31228 | 73.08498 | 20455 ft | 425 kts | 144° |
| 2026-04-22 12:25 | 18.28786 | 73.10259 | 20984 ft | 428 kts | 146° |
| 2026-04-22 12:25 | 18.26295 | 73.11951 | 21505 ft | 431 kts | 147° |
| 2026-04-22 12:26 | 18.23744 | 73.13654 | 22016 ft | 434 kts | 147° |
| 2026-04-22 12:26 | 18.21178 | 73.15365 | 22517 ft | 437 kts | 147° |
| 2026-04-22 12:26 | 18.18639 | 73.17061 | 23000 ft | 440 kts | 146° |
| 2026-04-22 12:26 | 18.16067 | 73.18784 | 23474 ft | 443 kts | 146° |
| 2026-04-22 12:27 | 18.13464 | 73.20528 | 23936 ft | 445 kts | 146° |
| 2026-04-22 12:27 | 18.10839 | 73.22289 | 24386 ft | 448 kts | 146° |
| 2026-04-22 12:27 | 18.08212 | 73.24053 | 24820 ft | 450 kts | 146° |
| 2026-04-22 12:27 | 18.05576 | 73.25823 | 25239 ft | 453 kts | 146° |
| 2026-04-22 12:28 | 18.02924 | 73.27603 | 25643 ft | 455 kts | 146° |
| 2026-04-22 12:28 | 18.00268 | 73.29385 | 26032 ft | 457 kts | 146° |
| 2026-04-22 12:28 | 17.97562 | 73.31200 | 26413 ft | 459 kts | 146° |
| 2026-04-22 12:28 | 17.94879 | 73.32999 | 26776 ft | 462 kts | 146° |
| 2026-04-22 12:29 | 17.92168 | 73.34817 | 27129 ft | 464 kts | 146° |
| 2026-04-22 12:29 | 17.89465 | 73.36628 | 27471 ft | 466 kts | 146° |
| 2026-04-22 12:29 | 17.86743 | 73.38443 | 27801 ft | 468 kts | 147° |
| 2026-04-22 12:29 | 17.83978 | 73.40283 | 28124 ft | 470 kts | 147° |
| 2026-04-22 12:30 | 17.78463 | 73.43959 | 28738 ft | 473 kts | 146° |
| 2026-04-22 12:30 | 17.75711 | 73.45795 | 29027 ft | 475 kts | 146° |
| 2026-04-22 12:30 | 17.72914 | 73.47663 | 29312 ft | 477 kts | 146° |
| 2026-04-22 12:31 | 17.70108 | 73.49537 | 29603 ft | 478 kts | 146° |
| 2026-04-22 12:31 | 17.67329 | 73.51392 | 29946 ft | 478 kts | 146° |
| 2026-04-22 12:31 | 17.64545 | 73.53251 | 30327 ft | 477 kts | 146° |
| 2026-04-22 12:31 | 17.61741 | 73.55123 | 30717 ft | 475 kts | 146° |
| 2026-04-22 12:32 | 17.58970 | 73.56972 | 31092 ft | 474 kts | 146° |
| 2026-04-22 12:32 | 17.53434 | 73.60664 | 31807 ft | 472 kts | 147° |
| 2026-04-22 12:32 | 17.50682 | 73.62498 | 32151 ft | 470 kts | 147° |
| 2026-04-22 12:33 | 17.47912 | 73.64343 | 32492 ft | 469 kts | 147° |
| 2026-04-22 12:33 | 17.45171 | 73.66174 | 32825 ft | 468 kts | 147° |
| 2026-04-22 12:33 | 17.42481 | 73.67979 | 33147 ft | 467 kts | 147° |
| 2026-04-22 12:33 | 17.39748 | 73.69813 | 33466 ft | 466 kts | 147° |
| 2026-04-22 12:34 | 17.37008 | 73.71647 | 33778 ft | 465 kts | 147° |
| 2026-04-22 12:34 | 17.34310 | 73.73448 | 34078 ft | 464 kts | 147° |
| 2026-04-22 12:34 | 17.31615 | 73.75244 | 34368 ft | 463 kts | 147° |
| 2026-04-22 12:34 | 17.28906 | 73.77047 | 34646 ft | 462 kts | 147° |
| 2026-04-22 12:35 | 17.26188 | 73.78854 | 34915 ft | 461 kts | 147° |
| 2026-04-22 12:35 | 17.23470 | 73.80660 | 35176 ft | 461 kts | 147° |
| 2026-04-22 12:35 | 17.20814 | 73.82424 | 35424 ft | 460 kts | 147° |
| 2026-04-22 12:35 | 17.18085 | 73.84235 | 35670 ft | 459 kts | 147° |
| 2026-04-22 12:36 | 17.15402 | 73.86016 | 35903 ft | 459 kts | 147° |
| 2026-04-22 12:36 | 17.12726 | 73.87791 | 36129 ft | 458 kts | 147° |
| 2026-04-22 12:36 | 17.10061 | 73.89558 | 36341 ft | 458 kts | 147° |
| 2026-04-22 12:36 | 17.07369 | 73.91341 | 36511 ft | 458 kts | 147° |
| 2026-04-22 12:37 | 17.04681 | 73.93121 | 36639 ft | 460 kts | 147° |
| 2026-04-22 12:37 | 17.01991 | 73.94904 | 36746 ft | 461 kts | 147° |
| 2026-04-22 12:37 | 16.99256 | 73.96715 | 36851 ft | 463 kts | 147° |
| 2026-04-22 12:37 | 16.96566 | 73.98496 | 36949 ft | 465 kts | 147° |
| 2026-04-22 12:38 | 16.91078 | 74.02127 | 37150 ft | 468 kts | 147° |
| 2026-04-22 12:38 | 16.88332 | 74.03941 | 37283 ft | 469 kts | 147° |
| 2026-04-22 12:38 | 16.85554 | 74.05765 | 37421 ft | 469 kts | 147° |
| 2026-04-22 12:39 | 16.82817 | 74.07564 | 37545 ft | 470 kts | 147° |
| 2026-04-22 12:39 | 16.77307 | 74.11190 | 37774 ft | 472 kts | 147° |
| 2026-04-22 12:39 | 16.74526 | 74.13023 | 37886 ft | 472 kts | 147° |
| 2026-04-22 12:40 | 16.71757 | 74.14848 | 37992 ft | 473 kts | 147° |
| 2026-04-22 12:40 | 16.68995 | 74.16670 | 38094 ft | 474 kts | 147° |
| 2026-04-22 12:40 | 16.66217 | 74.18500 | 38198 ft | 474 kts | 147° |
| 2026-04-22 12:40 | 16.63432 | 74.20336 | 38300 ft | 475 kts | 147° |
| 2026-04-22 12:41 | 16.60638 | 74.22176 | 38394 ft | 475 kts | 147° |
| 2026-04-22 12:41 | 16.55087 | 74.25832 | 38571 ft | 477 kts | 147° |
| 2026-04-22 12:42 | 16.49488 | 74.29517 | 38741 ft | 478 kts | 147° |
| 2026-04-22 12:42 | 16.43889 | 74.33198 | 38802 ft | 479 kts | 147° |
| 2026-04-22 12:43 | 16.38304 | 74.36867 | 38825 ft | 479 kts | 147° |
| 2026-04-22 12:43 | 16.32673 | 74.40565 | 38838 ft | 479 kts | 147° |
| 2026-04-22 12:44 | 16.27078 | 74.44237 | 38845 ft | 479 kts | 147° |
| 2026-04-22 12:44 | 16.21457 | 74.47923 | 38849 ft | 479 kts | 147° |
| 2026-04-22 12:45 | 16.15887 | 74.51574 | 38851 ft | 479 kts | 147° |
| 2026-04-22 12:45 | 16.10263 | 74.55258 | 38852 ft | 479 kts | 147° |
| 2026-04-22 12:46 | 16.04625 | 74.58948 | 38852 ft | 479 kts | 147° |
| 2026-04-22 12:46 | 15.99032 | 74.62606 | 38852 ft | 478 kts | 147° |
| 2026-04-22 12:47 | 15.93419 | 74.66280 | 38852 ft | 479 kts | 147° |
| 2026-04-22 12:47 | 15.87830 | 74.69957 | 38852 ft | 479 kts | 147° |
| 2026-04-22 12:48 | 15.82200 | 74.73629 | 38852 ft | 479 kts | 147° |
| 2026-04-22 12:48 | 15.76629 | 74.77258 | 38847 ft | 479 kts | 147° |
| 2026-04-22 12:49 | 15.70977 | 74.80939 | 38832 ft | 479 kts | 147° |
| 2026-04-22 12:49 | 15.65371 | 74.84589 | 38812 ft | 479 kts | 147° |
| 2026-04-22 12:50 | 15.59771 | 74.88233 | 38793 ft | 478 kts | 147° |
| 2026-04-22 12:50 | 15.54181 | 74.91868 | 38784 ft | 478 kts | 147° |
| 2026-04-22 12:51 | 15.48556 | 74.95523 | 38778 ft | 477 kts | 147° |
| 2026-04-22 12:51 | 15.42954 | 74.99163 | 38775 ft | 477 kts | 147° |
| 2026-04-22 12:52 | 15.37362 | 75.02793 | 38773 ft | 477 kts | 146° |
| 2026-04-22 12:52 | 15.31764 | 75.06426 | 38772 ft | 477 kts | 146° |
| 2026-04-22 12:53 | 15.26170 | 75.10053 | 38772 ft | 477 kts | 146° |
| 2026-04-22 12:53 | 15.20559 | 75.13690 | 38772 ft | 477 kts | 146° |
| 2026-04-22 12:54 | 15.14969 | 75.17313 | 38772 ft | 477 kts | 146° |
| 2026-04-22 12:54 | 15.09330 | 75.20966 | 38772 ft | 477 kts | 146° |
| 2026-04-22 12:55 | 15.03717 | 75.24599 | 38772 ft | 477 kts | 146° |
| 2026-04-22 12:55 | 14.98112 | 75.28223 | 38772 ft | 477 kts | 146° |
| 2026-04-22 12:56 | 14.92528 | 75.31831 | 38773 ft | 476 kts | 146° |
| 2026-04-22 12:56 | 14.86919 | 75.35445 | 38772 ft | 475 kts | 146° |
| 2026-04-22 12:57 | 14.81332 | 75.39030 | 38772 ft | 475 kts | 146° |
| 2026-04-22 12:57 | 14.75768 | 75.42609 | 38772 ft | 475 kts | 146° |
| 2026-04-22 12:58 | 14.70179 | 75.46207 | 38772 ft | 475 kts | 146° |
| 2026-04-22 12:58 | 14.64579 | 75.49812 | 38772 ft | 475 kts | 146° |
| 2026-04-22 12:59 | 14.58982 | 75.53415 | 38772 ft | 475 kts | 146° |
| 2026-04-22 12:59 | 14.53405 | 75.57003 | 38772 ft | 475 kts | 146° |
| 2026-04-22 13:00 | 14.47805 | 75.60604 | 38773 ft | 477 kts | 146° |
| 2026-04-22 13:00 | 14.42178 | 75.64221 | 38773 ft | 481 kts | 146° |
| 2026-04-22 13:01 | 14.36491 | 75.67893 | 38773 ft | 485 kts | 146° |
| 2026-04-22 13:01 | 14.30782 | 75.71584 | 38773 ft | 488 kts | 146° |
| 2026-04-22 13:02 | 14.24985 | 75.75314 | 38773 ft | 491 kts | 146° |
| 2026-04-22 13:02 | 14.19218 | 75.79014 | 38772 ft | 493 kts | 146° |
| 2026-04-22 13:03 | 14.13383 | 75.82753 | 38772 ft | 495 kts | 146° |
| 2026-04-22 13:03 | 14.07604 | 75.86453 | 38772 ft | 496 kts | 146° |
| 2026-04-22 13:04 | 14.01754 | 75.90196 | 38772 ft | 498 kts | 146° |
| 2026-04-22 13:04 | 13.95908 | 75.93933 | 38772 ft | 498 kts | 146° |
| 2026-04-22 13:05 | 13.90047 | 75.97678 | 38772 ft | 498 kts | 146° |
| 2026-04-22 13:05 | 13.84200 | 76.01393 | 38772 ft | 498 kts | 146° |
| 2026-04-22 13:06 | 13.78358 | 76.05105 | 38772 ft | 498 kts | 146° |
| 2026-04-22 13:06 | 13.72501 | 76.08834 | 38772 ft | 498 kts | 146° |
| 2026-04-22 13:07 | 13.66669 | 76.12549 | 38775 ft | 498 kts | 146° |
| 2026-04-22 13:07 | 13.60918 | 76.16213 | 38784 ft | 498 kts | 146° |
| 2026-04-22 13:08 | 13.55073 | 76.19934 | 38796 ft | 498 kts | 146° |
| 2026-04-22 13:08 | 13.49212 | 76.23663 | 38810 ft | 498 kts | 146° |
| 2026-04-22 13:09 | 13.43358 | 76.27387 | 38825 ft | 498 kts | 146° |
| 2026-04-22 13:09 | 13.37493 | 76.31115 | 38842 ft | 498 kts | 146° |
| 2026-04-22 13:10 | 13.31624 | 76.34843 | 38858 ft | 498 kts | 146° |
| 2026-04-22 13:10 | 13.25772 | 76.38559 | 38869 ft | 498 kts | 146° |
| 2026-04-22 13:11 | 13.19954 | 76.42251 | 38875 ft | 498 kts | 146° |
| 2026-04-22 13:11 | 13.14099 | 76.45964 | 38878 ft | 498 kts | 146° |
| 2026-04-22 13:12 | 13.08217 | 76.49692 | 38880 ft | 497 kts | 146° |
| 2026-04-22 13:12 | 13.02357 | 76.53403 | 38881 ft | 495 kts | 146° |
| 2026-04-22 13:13 | 12.96489 | 76.57119 | 38881 ft | 493 kts | 146° |
| 2026-04-22 13:13 | 12.90694 | 76.60788 | 38881 ft | 492 kts | 146° |
| 2026-04-22 13:14 | 12.84850 | 76.64470 | 38880 ft | 492 kts | 146° |
| 2026-04-22 13:14 | 12.79037 | 76.68148 | 38881 ft | 492 kts | 146° |
| 2026-04-22 13:15 | 12.73240 | 76.71828 | 38880 ft | 492 kts | 146° |
| 2026-04-22 13:15 | 12.67426 | 76.75508 | 38880 ft | 492 kts | 146° |
| 2026-04-22 13:16 | 12.61603 | 76.79186 | 38880 ft | 492 kts | 146° |
| 2026-04-22 13:16 | 12.55826 | 76.82831 | 38880 ft | 492 kts | 146° |
| 2026-04-22 13:17 | 12.49983 | 76.86513 | 38880 ft | 493 kts | 146° |
| 2026-04-22 13:17 | 12.44148 | 76.90190 | 38880 ft | 494 kts | 146° |
| 2026-04-22 13:18 | 12.38320 | 76.93861 | 38880 ft | 495 kts | 146° |
| 2026-04-22 13:18 | 12.32482 | 76.97534 | 38880 ft | 496 kts | 146° |
| 2026-04-22 13:19 | 12.26620 | 77.01221 | 38880 ft | 496 kts | 146° |
| 2026-04-22 13:19 | 12.20766 | 77.04903 | 38880 ft | 497 kts | 146° |
| 2026-04-22 13:20 | 12.14890 | 77.08594 | 38880 ft | 498 kts | 146° |
| 2026-04-22 13:20 | 12.09020 | 77.12280 | 38880 ft | 497 kts | 146° |
| 2026-04-22 13:21 | 12.03140 | 77.15971 | 38880 ft | 498 kts | 146° |
| 2026-04-22 13:21 | 11.97231 | 77.19679 | 38880 ft | 497 kts | 146° |
| 2026-04-22 13:22 | 11.91381 | 77.23346 | 38880 ft | 498 kts | 146° |
| 2026-04-22 13:22 | 11.85482 | 77.27030 | 38880 ft | 497 kts | 146° |
| 2026-04-22 13:23 | 11.79588 | 77.30703 | 38879 ft | 497 kts | 146° |
| 2026-04-22 13:23 | 11.73680 | 77.34392 | 38870 ft | 498 kts | 146° |
| 2026-04-22 13:24 | 11.67835 | 77.38047 | 38855 ft | 497 kts | 146° |
| 2026-04-22 13:24 | 11.61948 | 77.41727 | 38840 ft | 498 kts | 146° |
| 2026-04-22 13:25 | 11.56065 | 77.45405 | 38829 ft | 498 kts | 146° |
| 2026-04-22 13:25 | 11.50162 | 77.49092 | 38821 ft | 498 kts | 146° |
| 2026-04-22 13:26 | 11.44292 | 77.52758 | 38816 ft | 498 kts | 146° |
| 2026-04-22 13:26 | 11.38420 | 77.56423 | 38821 ft | 498 kts | 146° |
| 2026-04-22 13:27 | 11.32545 | 77.60088 | 38829 ft | 498 kts | 146° |
| 2026-04-22 13:27 | 11.26655 | 77.63761 | 38832 ft | 498 kts | 146° |
| 2026-04-22 13:28 | 11.20742 | 77.67461 | 38829 ft | 497 kts | 146° |
| 2026-04-22 13:28 | 11.14875 | 77.71145 | 38824 ft | 497 kts | 146° |
| 2026-04-22 13:29 | 11.09027 | 77.74800 | 38825 ft | 498 kts | 146° |
| 2026-04-22 13:29 | 11.03123 | 77.78480 | 38833 ft | 498 kts | 146° |
| 2026-04-22 13:30 | 10.97243 | 77.82137 | 38840 ft | 497 kts | 146° |
| 2026-04-22 13:30 | 10.91357 | 77.85795 | 38838 ft | 495 kts | 145° |
| 2026-04-22 13:31 | 10.85492 | 77.89427 | 38827 ft | 494 kts | 145° |
| 2026-04-22 13:31 | 10.79632 | 77.93052 | 38814 ft | 494 kts | 145° |
| 2026-04-22 13:32 | 10.73781 | 77.96679 | 38801 ft | 494 kts | 145° |
| 2026-04-22 13:32 | 10.67951 | 78.00294 | 38789 ft | 494 kts | 145° |
| 2026-04-22 13:33 | 10.62148 | 78.03894 | 38783 ft | 494 kts | 145° |
| 2026-04-22 13:33 | 10.56367 | 78.07478 | 38783 ft | 494 kts | 145° |
| 2026-04-22 13:34 | 10.50587 | 78.11058 | 38785 ft | 494 kts | 145° |
| 2026-04-22 13:34 | 10.44794 | 78.14645 | 38788 ft | 494 kts | 145° |
| 2026-04-22 13:35 | 10.39014 | 78.18224 | 38791 ft | 494 kts | 145° |
| 2026-04-22 13:35 | 10.33239 | 78.21799 | 38793 ft | 494 kts | 145° |
| 2026-04-22 13:36 | 10.27428 | 78.25394 | 38795 ft | 494 kts | 145° |
| 2026-04-22 13:36 | 10.21651 | 78.28966 | 38797 ft | 494 kts | 145° |
| 2026-04-22 13:37 | 10.15889 | 78.32528 | 38797 ft | 494 kts | 145° |
| 2026-04-22 13:37 | 10.10064 | 78.36128 | 38797 ft | 494 kts | 145° |
| 2026-04-22 13:38 | 10.04263 | 78.39710 | 38797 ft | 494 kts | 145° |
| 2026-04-22 13:38 | 9.95534 | 78.45099 | 38797 ft | 494 kts | 145° |
| 2026-04-22 13:39 | 9.89757 | 78.48664 | 38797 ft | 494 kts | 145° |
| 2026-04-22 13:39 | 9.83909 | 78.52252 | 38797 ft | 494 kts | 145° |
| 2026-04-22 13:40 | 9.78097 | 78.55818 | 38797 ft | 494 kts | 145° |
| 2026-04-22 13:40 | 9.72260 | 78.59409 | 38796 ft | 494 kts | 145° |
| 2026-04-22 13:41 | 9.66425 | 78.63000 | 38797 ft | 494 kts | 145° |
| 2026-04-22 13:41 | 9.60607 | 78.66589 | 38798 ft | 494 kts | 145° |
| 2026-04-22 13:42 | 9.54771 | 78.70212 | 38797 ft | 494 kts | 145° |
| 2026-04-22 13:42 | 9.48949 | 78.73810 | 38797 ft | 494 kts | 145° |
| 2026-04-22 13:43 | 9.43065 | 78.77436 | 38522 ft | 494 kts | 145° |
| 2026-04-22 13:43 | 9.40164 | 78.79220 | 38275 ft | 494 kts | 145° |
| 2026-04-22 13:43 | 9.37230 | 78.81024 | 38020 ft | 494 kts | 145° |
| 2026-04-22 13:44 | 9.34295 | 78.82829 | 37625 ft | 495 kts | 145° |
| 2026-04-22 13:44 | 9.31367 | 78.84629 | 37037 ft | 495 kts | 145° |
| 2026-04-22 13:44 | 9.28408 | 78.86448 | 36360 ft | 495 kts | 145° |
| 2026-04-22 13:44 | 9.25469 | 78.88253 | 35622 ft | 495 kts | 145° |
| 2026-04-22 13:45 | 9.22563 | 78.90038 | 34891 ft | 497 kts | 145° |
| 2026-04-22 13:45 | 9.19598 | 78.91859 | 34129 ft | 499 kts | 145° |
| 2026-04-22 13:45 | 9.16634 | 78.93680 | 33359 ft | 502 kts | 145° |
| 2026-04-22 13:45 | 9.13666 | 78.95503 | 32493 ft | 507 kts | 145° |
| 2026-04-22 13:46 | 9.10622 | 78.97373 | 31548 ft | 512 kts | 145° |
| 2026-04-22 13:46 | 9.07560 | 78.99253 | 30566 ft | 517 kts | 146° |
| 2026-04-22 13:46 | 9.04507 | 79.01129 | 29575 ft | 522 kts | 146° |
| 2026-04-22 13:46 | 9.01397 | 79.03037 | 28918 ft | 517 kts | 146° |
| 2026-04-22 13:47 | 8.98346 | 79.04906 | 28363 ft | 516 kts | 146° |
| 2026-04-22 13:47 | 8.95275 | 79.06790 | 27785 ft | 511 kts | 149° |
| 2026-04-22 13:47 | 8.92267 | 79.08635 | 27422 ft | 496 kts | 149° |
| 2026-04-22 13:47 | 8.89333 | 79.10429 | 26974 ft | 486 kts | 149° |
| 2026-04-22 13:48 | 8.86467 | 79.12168 | 26433 ft | 473 kts | 149° |
| 2026-04-22 13:48 | 8.83724 | 79.13830 | 25970 ft | 455 kts | 149° |
| 2026-04-22 13:48 | 8.81015 | 79.15475 | 25537 ft | 452 kts | 149° |
| 2026-04-22 13:48 | 8.78305 | 79.17124 | 25131 ft | 448 kts | 149° |
| 2026-04-22 13:49 | 8.75591 | 79.18778 | 24676 ft | 445 kts | 149° |
| 2026-04-22 13:49 | 8.72925 | 79.20406 | 24134 ft | 441 kts | 150° |
| 2026-04-22 13:49 | 8.70285 | 79.22020 | 23626 ft | 436 kts | 150° |
| 2026-04-22 13:49 | 8.67706 | 79.23598 | 23148 ft | 431 kts | 150° |
| 2026-04-22 13:50 | 8.65976 | 79.24656 | 22823 ft | 427 kts | 150° |
| 2026-04-22 13:50 | 8.62637 | 79.26698 | 22198 ft | 422 kts | 150° |
| 2026-04-22 13:50 | 8.60140 | 79.28224 | 21730 ft | 417 kts | 150° |
| 2026-04-22 13:50 | 8.57671 | 79.29733 | 21280 ft | 413 kts | 150° |
| 2026-04-22 13:51 | 8.55235 | 79.31222 | 20832 ft | 407 kts | 150° |
| 2026-04-22 13:51 | 8.52825 | 79.32695 | 20381 ft | 406 kts | 150° |
| 2026-04-22 13:51 | 8.50371 | 79.34194 | 19917 ft | 404 kts | 150° |
| 2026-04-22 13:51 | 8.47961 | 79.35667 | 19461 ft | 402 kts | 150° |
| 2026-04-22 13:52 | 8.45516 | 79.37160 | 18995 ft | 400 kts | 150° |
| 2026-04-22 13:52 | 8.43096 | 79.38638 | 18533 ft | 398 kts | 150° |
| 2026-04-22 13:52 | 8.40679 | 79.40114 | 18071 ft | 396 kts | 150° |
| 2026-04-22 13:52 | 8.38278 | 79.41580 | 17612 ft | 395 kts | 150° |
| 2026-04-22 13:53 | 8.35897 | 79.43034 | 17155 ft | 393 kts | 150° |
| 2026-04-22 13:53 | 8.33514 | 79.44488 | 16698 ft | 391 kts | 150° |
| 2026-04-22 13:53 | 8.31128 | 79.45943 | 16238 ft | 390 kts | 150° |
| 2026-04-22 13:53 | 8.28786 | 79.47372 | 15788 ft | 388 kts | 150° |
| 2026-04-22 13:54 | 8.26423 | 79.48814 | 15334 ft | 387 kts | 150° |
| 2026-04-22 13:54 | 8.24073 | 79.50247 | 14881 ft | 385 kts | 150° |
| 2026-04-22 13:54 | 8.21734 | 79.51674 | 14430 ft | 384 kts | 150° |
| 2026-04-22 13:54 | 8.19386 | 79.53105 | 13978 ft | 382 kts | 150° |
| 2026-04-22 13:55 | 8.17156 | 79.54466 | 13549 ft | 380 kts | 150° |
| 2026-04-22 13:55 | 8.14899 | 79.55841 | 13114 ft | 379 kts | 150° |
| 2026-04-22 13:55 | 8.12653 | 79.57210 | 12682 ft | 377 kts | 150° |
| 2026-04-22 13:55 | 8.10409 | 79.58579 | 12249 ft | 375 kts | 150° |
| 2026-04-22 13:56 | 8.08181 | 79.59937 | 11795 ft | 373 kts | 150° |
| 2026-04-22 13:56 | 8.05952 | 79.61296 | 11357 ft | 371 kts | 150° |
| 2026-04-22 13:56 | 8.03708 | 79.62664 | 10928 ft | 369 kts | 150° |
| 2026-04-22 13:56 | 8.01516 | 79.64000 | 10699 ft | 358 kts | 150° |
| 2026-04-22 13:57 | 7.99409 | 79.65286 | 10581 ft | 345 kts | 150° |
| 2026-04-22 13:57 | 7.97364 | 79.66543 | 10380 ft | 336 kts | 150° |
| 2026-04-22 13:57 | 7.95377 | 79.67766 | 10188 ft | 326 kts | 150° |
| 2026-04-22 13:57 | 7.93427 | 79.68963 | 10000 ft | 317 kts | 150° |
| 2026-04-22 13:58 | 7.91546 | 79.70113 | 9820 ft | 309 kts | 150° |
| 2026-04-22 13:58 | 7.89713 | 79.71233 | 9640 ft | 300 kts | 150° |
| 2026-04-22 13:58 | 7.87909 | 79.72327 | 9371 ft | 296 kts | 150° |
| 2026-04-22 13:58 | 7.86089 | 79.73426 | 9029 ft | 295 kts | 150° |
| 2026-04-22 13:59 | 7.84353 | 79.74477 | 8698 ft | 293 kts | 150° |
| 2026-04-22 13:59 | 7.82591 | 79.75546 | 8365 ft | 292 kts | 150° |
| 2026-04-22 13:59 | 7.80831 | 79.76616 | 8032 ft | 290 kts | 150° |
| 2026-04-22 13:59 | 7.79088 | 79.77676 | 7702 ft | 289 kts | 150° |
| 2026-04-22 14:00 | 7.77363 | 79.78725 | 7377 ft | 287 kts | 150° |
| 2026-04-22 14:00 | 7.75664 | 79.79757 | 7056 ft | 286 kts | 150° |
| 2026-04-22 14:00 | 7.73970 | 79.80788 | 6737 ft | 284 kts | 150° |
| 2026-04-22 14:00 | 7.72286 | 79.81812 | 6419 ft | 283 kts | 150° |
| 2026-04-22 14:01 | 7.70618 | 79.82826 | 6105 ft | 282 kts | 150° |
| 2026-04-22 14:01 | 7.68936 | 79.83849 | 5788 ft | 280 kts | 150° |
| 2026-04-22 14:01 | 7.67285 | 79.84853 | 5477 ft | 279 kts | 150° |
| 2026-04-22 14:01 | 7.65617 | 79.85867 | 5164 ft | 278 kts | 150° |
| 2026-04-22 14:02 | 7.63959 | 79.86874 | 4862 ft | 276 kts | 150° |
| 2026-04-22 14:02 | 7.62275 | 79.87898 | 4577 ft | 273 kts | 150° |
| 2026-04-22 14:02 | 7.60624 | 79.88902 | 4300 ft | 271 kts | 150° |
| 2026-04-22 14:02 | 7.58956 | 79.89915 | 4021 ft | 268 kts | 150° |
| 2026-04-22 14:03 | 7.57346 | 79.90894 | 3754 ft | 266 kts | 150° |
| 2026-04-22 14:03 | 7.55788 | 79.91841 | 3499 ft | 263 kts | 150° |
| 2026-04-22 14:03 | 7.54221 | 79.92793 | 3244 ft | 260 kts | 150° |
| 2026-04-22 14:03 | 7.52676 | 79.93732 | 2995 ft | 258 kts | 150° |
| 2026-04-22 14:04 | 7.51160 | 79.94653 | 2753 ft | 255 kts | 150° |
| 2026-04-22 14:04 | 7.49639 | 79.95576 | 2513 ft | 253 kts | 150° |
| 2026-04-22 14:04 | 7.49062 | 79.95927 | 2422 ft | 252 kts | 150° |
| 2026-04-22 14:05 | 7.48538 | 79.96246 | 2340 ft | 251 kts | 150° |
| 2026-04-22 14:06 | 7.47017 | 79.97169 | 2103 ft | 249 kts | 150° |
| 2026-04-22 14:06 | 7.45496 | 79.98093 | 1866 ft | 246 kts | 150° |
| 2026-04-22 14:06 | 7.43996 | 79.99004 | 1536 ft | 243 kts | 150° |
| 2026-04-22 14:06 | 7.42565 | 79.99873 | 1184 ft | 240 kts | 150° |
| 2026-04-22 14:07 | 7.41133 | 80.00742 | 835 ft | 238 kts | 150° |
| 2026-04-22 14:07 | 7.39739 | 80.01589 | 448 ft | 235 kts | 150° |
| 2026-04-22 14:07 | 7.38381 | 80.02415 | 631 ft | 210 kts | 150° |
| 2026-04-22 14:07 | 7.37098 | 80.03212 | 1504 ft | 229 kts | 148° |
| 2026-04-22 14:08 | 7.36163 | 80.03920 | 2123 ft | 246 kts | 138° |
| 2026-04-22 14:08 | 7.35535 | 80.04575 | 2601 ft | 257 kts | 130° |
| 2026-04-22 14:08 | 7.34521 | 80.06166 | 3593 ft | 277 kts | 116° |
| 2026-04-22 14:09 | 7.33868 | 80.08118 | 4658 ft | 294 kts | 102° |
| 2026-04-22 14:09 | 7.33671 | 80.10249 | 5728 ft | 303 kts | 89° |
| 2026-04-22 14:09 | 7.33954 | 80.12389 | 6739 ft | 299 kts | 75° |
| 2026-04-22 14:09 | 7.34698 | 80.14372 | 7692 ft | 296 kts | 62° |
| 2026-04-22 14:10 | 7.35822 | 80.16066 | 8574 ft | 294 kts | 48° |
| 2026-04-22 14:10 | 7.37319 | 80.17478 | 9436 ft | 291 kts | 34° |
| 2026-04-22 14:10 | 7.37966 | 80.17916 | 9750 ft | 289 kts | 29° |
| 2026-04-22 14:16 | 7.39720 | 80.18733 | 10517 ft | 288 kts | 16° |
| 2026-04-22 14:16 | 7.41646 | 80.19134 | 11267 ft | 286 kts | 2° |
| 2026-04-22 14:16 | 7.43615 | 80.19095 | 12011 ft | 285 kts | 356° |
| 2026-04-22 14:17 | 7.45591 | 80.19173 | 12786 ft | 285 kts | 3° |
| 2026-04-22 14:17 | 7.47530 | 80.19373 | 13564 ft | 284 kts | 6° |
| 2026-04-22 14:17 | 7.49449 | 80.19648 | 14546 ft | 272 kts | 7° |
| 2026-04-22 14:17 | 7.51220 | 80.19927 | 15707 ft | 250 kts | 7° |
| 2026-04-22 14:18 | 7.52817 | 80.20187 | 16796 ft | 226 kts | 7° |
| 2026-04-22 14:18 | 7.53123 | 80.20238 | 16979 ft | 222 kts | 7° |
| 2026-04-22 14:26 | 7.53404 | 80.20284 | 17140 ft | 219 kts | 7° |
| 2026-04-22 14:26 | 7.53637 | 80.20322 | 17265 ft | 216 kts | 7° |
| 2026-04-22 14:26 | 7.55111 | 80.20563 | 17656 ft | 221 kts | 7° |
| 2026-04-22 14:27 | 7.56674 | 80.20813 | 17917 ft | 233 kts | 7° |
| 2026-04-22 14:27 | 7.58305 | 80.21071 | 18186 ft | 245 kts | 7° |
| 2026-04-22 14:27 | 7.60038 | 80.21341 | 18438 ft | 259 kts | 7° |
| 2026-04-22 14:27 | 7.61879 | 80.21622 | 18427 ft | 284 kts | 7° |
| 2026-04-22 14:28 | 7.63876 | 80.21925 | 18426 ft | 288 kts | 7° |
| 2026-04-22 14:28 | 7.65836 | 80.22221 | 18358 ft | 277 kts | 7° |
| 2026-04-22 14:28 | 7.67727 | 80.22503 | 17952 ft | 281 kts | 6° |
| 2026-04-22 14:28 | 7.69699 | 80.22685 | 17228 ft | 296 kts | 1° |
| 2026-04-22 14:29 | 7.71813 | 80.22715 | 16276 ft | 317 kts | 358° |
| 2026-04-22 14:29 | 7.74082 | 80.22682 | 15311 ft | 335 kts | 357° |
| 2026-04-22 14:29 | 7.76501 | 80.22624 | 14328 ft | 352 kts | 357° |
| 2026-04-22 14:29 | 7.79014 | 80.22543 | 13354 ft | 364 kts | 356° |
| 2026-04-22 14:30 | 7.81577 | 80.22453 | 12449 ft | 367 kts | 358° |
| 2026-04-22 14:30 | 7.84175 | 80.22683 | 12269 ft | 353 kts | 6° |
| 2026-04-22 14:30 | 7.86593 | 80.23027 | 12482 ft | 347 kts | 7° |
| 2026-04-22 14:30 | 7.89184 | 80.23405 | 11168 ft | 407 kts | 6° |
| 2026-04-22 14:31 | 7.92086 | 80.23775 | 9989 ft | 402 kts | 5° |
| 2026-04-22 14:31 | 7.94765 | 80.23857 | 9123 ft | 378 kts | 351° |
| 2026-04-22 14:31 | 7.97163 | 80.23081 | 8162 ft | 359 kts | 329° |
| 2026-04-22 14:31 | 7.99075 | 80.21507 | 7339 ft | 338 kts | 309° |
| 2026-04-22 14:32 | 8.00246 | 80.19569 | 7315 ft | 298 kts | 290° |
| 2026-04-22 14:32 | 8.00713 | 80.17684 | 7340 ft | 265 kts | 274° |
| 2026-04-22 14:32 | 8.00669 | 80.15906 | 7138 ft | 246 kts | 259° |
| 2026-04-22 14:32 | 8.00190 | 80.14272 | 6852 ft | 232 kts | 245° |
| 2026-04-22 14:33 | 7.99378 | 80.12869 | 6580 ft | 220 kts | 232° |
| 2026-04-22 14:33 | 7.98311 | 80.11731 | 6210 ft | 215 kts | 219° |
| 2026-04-22 14:33 | 7.97081 | 80.10899 | 5791 ft | 213 kts | 207° |
| 2026-04-22 14:33 | 7.95683 | 80.10349 | 5362 ft | 212 kts | 194° |
| 2026-04-22 14:34 | 7.94246 | 80.10089 | 4952 ft | 211 kts | 188° |
| 2026-04-22 14:34 | 7.92807 | 80.09911 | 4546 ft | 210 kts | 187° |
| 2026-04-22 14:34 | 7.91357 | 80.09742 | 4136 ft | 208 kts | 187° |
| 2026-04-22 14:34 | 7.89921 | 80.09573 | 3731 ft | 207 kts | 187° |
| 2026-04-22 14:35 | 7.88454 | 80.09397 | 3318 ft | 206 kts | 187° |
| 2026-04-22 14:35 | 7.86995 | 80.09220 | 2997 ft | 206 kts | 187° |
| 2026-04-22 14:35 | 7.85557 | 80.09045 | 2794 ft | 204 kts | 187° |
| 2026-04-22 14:35 | 7.84159 | 80.08874 | 2577 ft | 203 kts | 187° |
| 2026-04-22 14:36 | 7.82780 | 80.08704 | 2508 ft | 201 kts | 187° |
| 2026-04-22 14:36 | 7.81372 | 80.08531 | 2499 ft | 203 kts | 187° |
| 2026-04-22 14:36 | 7.79969 | 80.08359 | 2496 ft | 203 kts | 187° |
| 2026-04-22 14:36 | 7.78586 | 80.08189 | 2494 ft | 203 kts | 187° |
| 2026-04-22 14:37 | 7.77168 | 80.08015 | 2494 ft | 203 kts | 187° |
| 2026-04-22 14:37 | 7.75769 | 80.07842 | 2494 ft | 203 kts | 187° |
| 2026-04-22 14:37 | 7.74367 | 80.07670 | 2494 ft | 203 kts | 187° |
| 2026-04-22 14:37 | 7.72977 | 80.07499 | 2494 ft | 203 kts | 187° |
| 2026-04-22 14:38 | 7.71573 | 80.07326 | 2494 ft | 203 kts | 187° |
| 2026-04-22 14:38 | 7.70180 | 80.07154 | 2494 ft | 203 kts | 187° |
| 2026-04-22 14:38 | 7.68764 | 80.06980 | 2494 ft | 203 kts | 187° |
| 2026-04-22 14:38 | 7.67379 | 80.06809 | 2494 ft | 203 kts | 187° |
| 2026-04-22 14:39 | 7.65967 | 80.06635 | 2494 ft | 203 kts | 187° |
| 2026-04-22 14:39 | 7.64570 | 80.06464 | 2494 ft | 203 kts | 187° |
| 2026-04-22 14:39 | 7.63161 | 80.06290 | 2494 ft | 203 kts | 187° |
| 2026-04-22 14:40 | 7.60819 | 80.06001 | 2494 ft | 203 kts | 187° |
| 2026-04-22 14:40 | 7.58957 | 80.05772 | 2494 ft | 203 kts | 187° |
| 2026-04-22 14:40 | 7.57538 | 80.05597 | 2494 ft | 203 kts | 187° |
| 2026-04-22 14:40 | 7.56145 | 80.05425 | 2494 ft | 203 kts | 187° |
| 2026-04-22 14:41 | 7.54750 | 80.05253 | 2494 ft | 203 kts | 187° |
| 2026-04-22 14:41 | 7.53337 | 80.05079 | 2494 ft | 203 kts | 187° |
| 2026-04-22 14:41 | 7.51930 | 80.04906 | 2494 ft | 203 kts | 187° |
| 2026-04-22 14:41 | 7.50543 | 80.04735 | 2494 ft | 203 kts | 187° |
| 2026-04-22 14:42 | 7.49132 | 80.04561 | 2494 ft | 203 kts | 187° |
| 2026-04-22 14:42 | 7.47729 | 80.04388 | 2494 ft | 203 kts | 187° |
| 2026-04-22 14:42 | 7.46380 | 80.04221 | 2494 ft | 203 kts | 187° |
| 2026-04-22 14:42 | 7.44980 | 80.04049 | 2494 ft | 203 kts | 187° |
| 2026-04-22 14:43 | 7.43576 | 80.03876 | 2494 ft | 203 kts | 187° |
| 2026-04-22 14:43 | 7.42185 | 80.03704 | 2494 ft | 203 kts | 187° |
| 2026-04-22 14:43 | 7.40782 | 80.03532 | 2494 ft | 203 kts | 187° |
| 2026-04-22 14:43 | 7.39373 | 80.03359 | 2494 ft | 203 kts | 187° |
| 2026-04-22 14:44 | 7.37984 | 80.03179 | 2491 ft | 203 kts | 191° |
| 2026-04-22 14:44 | 7.36670 | 80.02660 | 2490 ft | 203 kts | 213° |
| 2026-04-22 14:44 | 7.35530 | 80.01814 | 2494 ft | 204 kts | 217° |
| 2026-04-22 14:44 | 7.34395 | 80.00901 | 2494 ft | 204 kts | 217° |
| 2026-04-22 14:45 | 7.33269 | 80.00003 | 2480 ft | 202 kts | 217° |
| 2026-04-22 14:45 | 7.32150 | 79.99128 | 2138 ft | 208 kts | 216° |
| 2026-04-22 14:45 | 7.30955 | 79.98208 | 1995 ft | 214 kts | 216° |
| 2026-04-22 14:45 | 7.29816 | 79.97334 | 2012 ft | 201 kts | 216° |
| 2026-04-22 14:46 | 7.28709 | 79.96487 | 2001 ft | 200 kts | 216° |
| 2026-04-22 14:46 | 7.27612 | 79.95648 | 1990 ft | 194 kts | 216° |
| 2026-04-22 14:46 | 7.26546 | 79.94832 | 1823 ft | 191 kts | 216° |
| 2026-04-22 14:46 | 7.25481 | 79.94016 | 1575 ft | 190 kts | 216° |
| 2026-04-22 14:47 | 7.24434 | 79.93215 | 1324 ft | 189 kts | 217° |
| 2026-04-22 14:47 | 7.23391 | 79.92416 | 1073 ft | 188 kts | 216° |
| 2026-04-22 14:47 | 7.22360 | 79.91626 | 826 ft | 183 kts | 217° |
| 2026-04-22 14:47 | 7.21374 | 79.90869 | 575 ft | 168 kts | 216° |
| 2026-04-22 14:48 | 7.20462 | 79.90166 | 347 ft | 154 kts | 218° |
| 2026-04-22 14:48 | 7.19599 | 79.89510 | 129 ft | 143 kts | 216° |
| 2026-04-22 14:48 | 7.18770 | 79.88874 | 47 ft | 142 kts | 214° |
| 2026-04-22 14:48 | 7.18105 | 79.88372 | 47 ft | 87 kts | 216° |
| 2026-04-22 14:49 | 7.17741 | 79.88090 | 43 ft | 39 kts | 218° |
| 2026-04-22 14:49 | 7.17610 | 79.87992 | 43 ft | 14 kts | 216° |
| 2026-04-22 14:49 | 7.17528 | 79.87943 | 43 ft | 7 kts | 175° |
| 2026-04-22 14:49 | 7.17477 | 79.87974 | 43 ft | 8 kts | 133° |
| 2026-04-22 14:50 | 7.17437 | 79.88026 | 44 ft | 8 kts | 130° |
| 2026-04-22 14:50 | 7.17382 | 79.88039 | 45 ft | 8 kts | 198° |
| 2026-04-22 14:50 | 7.17331 | 79.88007 | 46 ft | 8 kts | 219° |
| 2026-04-22 14:50 | 7.17280 | 79.87975 | 46 ft | 6 kts | 181° |
| 2026-04-22 14:51 | 7.17261 | 79.87995 | 46 ft | 1 kts | 75° |
| 2026-04-22 14:51 | 7.17306 | 79.88049 | 47 ft | 21 kts | 32° |
| 2026-04-22 14:51 | 7.17440 | 79.88088 | 45 ft | 18 kts | 32° |
| 2026-04-22 14:51 | 7.17547 | 79.88171 | 46 ft | 19 kts | 39° |
| 2026-04-22 14:52 | 7.17639 | 79.88247 | 48 ft | 19 kts | 38° |
| 2026-04-22 14:52 | 7.17755 | 79.88329 | 48 ft | 20 kts | 39° |
| 2026-04-22 14:52 | 7.17852 | 79.88405 | 48 ft | 9 kts | 39° |
| 2026-04-22 14:52 | 7.17859 | 79.88435 | 48 ft | 4 kts | 110° |
| 2026-04-22 14:53 | 7.17840 | 79.88464 | 49 ft | 4 kts | 124° |
| 2026-04-22 14:53 | 7.17821 | 79.88491 | 50 ft | 4 kts | 127° |
| 2026-04-22 14:53 | 7.17804 | 79.88514 | 50 ft | 3 kts | 127° |
| 2026-04-22 14:53 | 7.17788 | 79.88535 | 51 ft | 4 kts | 128° |
| 2026-04-22 14:54 | 7.17771 | 79.88557 | 52 ft | 3 kts | 128° |
| 2026-04-22 14:54 | 7.17753 | 79.88580 | 53 ft | 4 kts | 129° |
| 2026-04-22 14:54 | 7.17732 | 79.88583 | 53 ft | 4 kts | 203° |
| 2026-04-22 14:54 | 7.17697 | 79.88566 | 54 ft | 5 kts | 207° |
| 2026-04-22 14:55 | 7.17668 | 79.88544 | 54 ft | 3 kts | 217° |
| 2026-04-22 14:55 | 7.17664 | 79.88541 | 54 ft | 0 kts | 217° |